createdAt,value
2018-01-25T00:00:58.758Z,99.99
2018-01-25T00:01:58.787Z,99.99
2018-01-25T00:02:58.816Z,99.16
2018-01-25T00:03:58.845Z,99.99
2018-01-25T00:04:58.876Z,99.99
2018-01-25T00:05:58.905Z,99.99
2018-01-25T00:06:58.933Z,99.99
2018-01-25T00:07:58.964Z,99.99
2018-01-25T00:08:58.993Z,99.99
2018-01-25T00:09:59.025Z,99.99
2018-01-25T00:10:59.053Z,99.99
2018-01-25T00:11:59.083Z,99.99
2018-01-25T00:12:59.113Z,99.99
2018-01-25T00:13:59.142Z,99.99
2018-01-25T00:14:59.213Z,99.99
2018-01-25T00:15:59.200Z,99.99
2018-01-25T00:16:59.228Z,99.99
2018-01-25T00:17:59.259Z,99.99
2018-01-25T00:18:59.288Z,99.99
2018-01-25T00:19:59.319Z,99.99
2018-01-25T00:20:59.348Z,99.99
2018-01-25T00:21:59.377Z,99.99
2018-01-25T00:22:59.407Z,99.99
2018-01-25T00:23:59.439Z,99.99
2018-01-25T00:24:59.465Z,99.99
2018-01-25T00:25:59.494Z,99.99
2018-01-25T00:26:59.524Z,99.99
2018-01-25T00:27:59.552Z,99.99
2018-01-25T00:28:59.583Z,99.99
2018-01-25T00:29:59.613Z,99.99
2018-01-25T00:30:59.642Z,99.99
2018-01-25T00:31:59.670Z,99.99
2018-01-25T00:32:59.699Z,99.99
2018-01-25T00:33:59.730Z,99.99
2018-01-25T00:34:59.760Z,99.99
2018-01-25T00:35:59.789Z,99.99
2018-01-25T00:36:59.818Z,99.99
2018-01-25T00:37:59.848Z,99.99
2018-01-25T00:38:59.876Z,99.99
2018-01-25T00:39:59.906Z,99.99
2018-01-25T00:40:59.939Z,99.99
2018-01-25T00:41:59.964Z,99.99
2018-01-25T00:42:59.999Z,99.99
2018-01-25T00:44:00.025Z,99.99
2018-01-25T00:45:00.054Z,99.99
2018-01-25T00:46:00.082Z,99.99
2018-01-25T00:47:00.131Z,99.99
2018-01-25T00:48:00.140Z,99.99
2018-01-25T00:49:00.169Z,99.99
2018-01-25T00:50:00.200Z,99.99
2018-01-25T00:51:00.228Z,99.99
2018-01-25T00:52:00.257Z,99.99
2018-01-25T00:53:00.287Z,99.99
2018-01-25T00:54:00.316Z,99.99
2018-01-25T00:55:00.346Z,99.99
2018-01-25T00:56:00.373Z,99.99
2018-01-25T00:57:00.402Z,99.99
2018-01-25T00:58:00.433Z,99.99
2018-01-25T00:59:00.461Z,99.99
2018-01-25T01:00:00.491Z,99.99
2018-01-25T01:01:00.520Z,99.99
2018-01-25T01:02:00.549Z,99.99
2018-01-25T01:03:00.579Z,99.99
2018-01-25T01:04:00.605Z,99.99
2018-01-25T01:05:00.637Z,99.99
2018-01-25T01:06:00.666Z,99.99
2018-01-25T01:07:00.695Z,99.99
2018-01-25T01:08:00.724Z,99.99
2018-01-25T01:09:00.752Z,99.99
2018-01-25T01:10:00.782Z,99.99
2018-01-25T01:11:00.810Z,99.99
2018-01-25T01:12:00.839Z,99.99
2018-01-25T01:13:00.869Z,99.99
2018-01-25T01:14:00.897Z,99.99
2018-01-25T01:15:00.927Z,99.99
2018-01-25T01:16:00.955Z,99.99
2018-01-25T01:17:00.984Z,99.99
2018-01-25T01:18:01.016Z,99.99
2018-01-25T01:19:01.043Z,99.99
2018-01-25T01:20:01.071Z,99.99
2018-01-25T01:21:01.100Z,99.99
2018-01-25T01:22:01.130Z,99.99
2018-01-25T01:23:01.158Z,99.99
2018-01-25T01:24:01.187Z,99.99
2018-01-25T01:25:01.216Z,99.99
2018-01-25T01:26:01.246Z,99.99
2018-01-25T01:27:01.274Z,99.99
2018-01-25T01:28:01.303Z,99.99
2018-01-25T01:29:01.332Z,99.99
2018-01-25T01:30:01.360Z,99.99
2018-01-25T01:31:01.389Z,99.99
2018-01-25T01:32:01.423Z,99.99
2018-01-25T01:33:01.447Z,99.99
2018-01-25T01:34:01.476Z,99.99
2018-01-25T01:35:01.505Z,99.99
2018-01-25T01:36:01.534Z,99.99
2018-01-25T01:37:01.562Z,99.99
2018-01-25T01:38:01.591Z,99.99
2018-01-25T01:39:01.620Z,99.99
2018-01-25T01:40:01.649Z,99.99
2018-01-25T01:41:01.677Z,99.99
2018-01-25T01:42:01.707Z,99.99
2018-01-25T01:43:01.735Z,99.99
2018-01-25T01:44:01.762Z,99.99
2018-01-25T01:45:01.794Z,99.99
2018-01-25T01:46:01.825Z,99.99
2018-01-25T01:47:01.850Z,99.99
2018-01-25T01:48:01.877Z,99.99
2018-01-25T01:49:01.906Z,99.99
2018-01-25T01:50:01.935Z,99.99
2018-01-25T01:51:01.965Z,99.99
2018-01-25T01:52:01.992Z,99.99
2018-01-25T01:53:02.021Z,99.99
2018-01-25T01:54:02.049Z,99.99
2018-01-25T01:55:02.079Z,99.99
2018-01-25T01:56:02.107Z,99.99
2018-01-25T01:57:02.136Z,99.99
2018-01-25T01:58:02.165Z,99.99
2018-01-25T01:59:02.193Z,99.99
2018-01-25T02:00:02.221Z,99.99
2018-01-25T02:01:02.250Z,99.99
2018-01-25T02:02:02.279Z,99.99
2018-01-25T02:03:02.309Z,99.99
2018-01-25T02:04:02.335Z,99.99
2018-01-25T02:05:02.364Z,99.99
2018-01-25T02:06:02.394Z,99.99
2018-01-25T02:07:02.422Z,99.99
2018-01-25T02:08:02.450Z,99.99
2018-01-25T02:09:02.480Z,99.99
2018-01-25T02:10:02.508Z,99.99
2018-01-25T02:11:02.536Z,99.99
2018-01-25T02:12:02.564Z,99.99
2018-01-25T02:13:02.594Z,99.99
2018-01-25T02:14:02.623Z,99.99
2018-01-25T02:15:02.651Z,99.99
2018-01-25T02:16:02.678Z,99.99
2018-01-25T02:17:02.707Z,99.99
2018-01-25T02:18:02.737Z,99.99
2018-01-25T02:19:02.766Z,99.99
2018-01-25T02:20:02.794Z,99.99
2018-01-25T02:21:02.823Z,99.99
2018-01-25T02:22:02.852Z,99.99
2018-01-25T02:23:02.880Z,99.99
2018-01-25T02:24:02.908Z,99.99
2018-01-25T02:25:02.937Z,99.99
2018-01-25T02:26:02.965Z,99.99
2018-01-25T02:27:02.995Z,99.99
2018-01-25T02:28:03.021Z,99.99
2018-01-25T02:29:03.054Z,99.99
2018-01-25T02:30:03.080Z,99.99
2018-01-25T02:31:03.109Z,99.99
2018-01-25T02:32:03.140Z,99.99
2018-01-25T02:33:03.165Z,99.99
2018-01-25T02:34:03.194Z,99.99
2018-01-25T02:35:03.223Z,99.99
2018-01-25T02:36:03.250Z,99.99
2018-01-25T02:37:03.280Z,99.99
2018-01-25T02:38:03.310Z,99.99
2018-01-25T02:39:03.337Z,99.99
2018-01-25T02:40:03.364Z,99.99
2018-01-25T02:41:03.393Z,99.99
2018-01-25T02:42:03.422Z,99.99
2018-01-25T02:43:03.451Z,99.99
2018-01-25T02:44:03.479Z,99.99
2018-01-25T02:45:03.507Z,99.99
2018-01-25T02:46:03.534Z,99.99
2018-01-25T02:47:03.564Z,99.99
2018-01-25T02:48:03.592Z,99.99
2018-01-25T02:49:03.620Z,99.99
2018-01-25T02:50:03.654Z,99.99
2018-01-25T02:51:03.678Z,99.99
2018-01-25T02:52:03.705Z,99.99
2018-01-25T02:53:03.734Z,99.99
2018-01-25T02:54:03.768Z,99.99
2018-01-25T02:55:03.846Z,99.99
2018-01-25T02:56:03.819Z,99.99
2018-01-25T02:57:03.847Z,99.99
2018-01-25T02:58:03.875Z,99.99
2018-01-25T02:59:03.910Z,99.99
2018-01-25T03:00:03.931Z,99.99
2018-01-25T03:01:03.960Z,99.99
2018-01-25T03:02:03.989Z,99.99
2018-01-25T03:03:04.019Z,99.99
2018-01-25T03:04:04.046Z,99.99
2018-01-25T03:05:04.073Z,99.99
2018-01-25T03:06:04.104Z,99.99
2018-01-25T03:07:04.134Z,99.99
2018-01-25T03:08:04.160Z,99.99
2018-01-25T03:09:04.189Z,99.99
2018-01-25T03:10:04.217Z,99.99
2018-01-25T03:11:08.803Z,99.99
2018-01-25T03:12:04.272Z,99.99
2018-01-25T03:13:04.309Z,99.99
2018-01-25T03:14:04.330Z,99.99
2018-01-25T03:15:04.359Z,99.99
2018-01-25T03:16:04.385Z,99.99
2018-01-25T03:17:04.417Z,99.99
2018-01-25T03:18:04.443Z,99.99
2018-01-25T03:19:04.472Z,99.99
2018-01-25T03:20:04.499Z,99.99
2018-01-25T03:21:04.529Z,99.99
2018-01-25T03:22:04.557Z,99.99
2018-01-25T03:23:04.587Z,99.99
2018-01-25T03:24:04.612Z,99.99
2018-01-25T03:25:04.640Z,99.99
2018-01-25T03:26:04.670Z,99.99
2018-01-25T03:27:04.698Z,99.99
2018-01-25T03:28:04.726Z,99.99
2018-01-25T03:29:04.753Z,99.99
2018-01-25T03:30:04.784Z,99.99
2018-01-25T03:31:04.811Z,99.99
2018-01-25T03:32:04.839Z,99.99
2018-01-25T03:33:04.867Z,99.99
2018-01-25T03:34:04.895Z,99.99
2018-01-25T03:35:04.925Z,99.99
2018-01-25T03:36:04.952Z,99.99
2018-01-25T03:37:04.981Z,99.99
2018-01-25T03:38:05.009Z,99.99
2018-01-25T03:39:05.037Z,99.99
2018-01-25T03:40:05.104Z,99.99
2018-01-25T03:41:05.095Z,99.99
2018-01-25T03:42:05.122Z,99.99
2018-01-25T03:43:05.150Z,99.99
2018-01-25T03:44:05.178Z,99.99
2018-01-25T03:45:05.207Z,99.99
2018-01-25T03:46:05.236Z,99.99
2018-01-25T03:47:05.265Z,99.99
2018-01-25T03:48:05.292Z,99.99
2018-01-25T03:49:05.320Z,99.99
2018-01-25T03:50:05.350Z,99.99
2018-01-25T03:51:05.378Z,99.99
2018-01-25T03:52:05.405Z,99.99
2018-01-25T03:53:05.433Z,99.99
2018-01-25T03:54:05.462Z,99.99
2018-01-25T03:55:05.490Z,99.99
2018-01-25T03:56:05.517Z,99.99
2018-01-25T03:57:05.545Z,99.99
2018-01-25T03:58:05.574Z,99.99
2018-01-25T03:59:05.603Z,99.99
2018-01-25T04:00:05.630Z,99.99
2018-01-25T04:01:05.661Z,99.99
2018-01-25T04:02:05.692Z,99.99
2018-01-25T04:03:05.719Z,99.99
2018-01-25T04:04:05.744Z,99.99
2018-01-25T04:05:05.773Z,99.99
2018-01-25T04:06:05.802Z,99.99
2018-01-25T04:07:05.830Z,99.99
2018-01-25T04:08:05.857Z,99.99
2018-01-25T04:09:05.886Z,99.99
2018-01-25T04:10:05.916Z,99.99
2018-01-25T04:11:05.944Z,99.99
2018-01-25T04:12:05.971Z,99.99
2018-01-25T04:13:06.002Z,99.99
2018-01-25T04:14:06.042Z,99.99
2018-01-25T04:15:06.058Z,99.99
2018-01-25T04:16:06.089Z,99.99
2018-01-25T04:17:06.115Z,99.99
2018-01-25T04:18:06.144Z,99.99
2018-01-25T04:19:06.171Z,99.99
2018-01-25T04:20:06.199Z,99.99
2018-01-25T04:21:06.228Z,99.99
2018-01-25T04:22:06.255Z,99.99
2018-01-25T04:23:06.285Z,99.99
2018-01-25T04:24:06.313Z,99.99
2018-01-25T04:25:06.342Z,99.99
2018-01-25T04:26:06.369Z,99.99
2018-01-25T04:27:06.398Z,99.99
2018-01-25T04:28:06.427Z,99.99
2018-01-25T04:29:06.456Z,99.99
2018-01-25T04:30:06.484Z,99.99
2018-01-25T04:31:06.511Z,99.99
2018-01-25T04:32:06.541Z,99.99
2018-01-25T04:33:06.569Z,99.99
2018-01-25T04:34:06.597Z,99.99
2018-01-25T04:35:06.626Z,99.99
2018-01-25T04:36:06.655Z,99.99
2018-01-25T04:37:06.684Z,99.99
2018-01-25T04:38:06.716Z,99.99
2018-01-25T04:39:06.741Z,99.99
2018-01-25T04:40:06.770Z,99.99
2018-01-25T04:41:06.798Z,99.99
2018-01-25T04:42:06.826Z,99.99
2018-01-25T04:43:06.854Z,99.99
2018-01-25T04:44:06.882Z,99.99
2018-01-25T04:45:06.912Z,99.99
2018-01-25T04:46:06.940Z,99.99
2018-01-25T04:47:06.968Z,99.99
2018-01-25T04:48:06.997Z,99.99
2018-01-25T04:49:07.027Z,99.99
2018-01-25T04:50:07.057Z,99.99
2018-01-25T04:51:07.084Z,99.99
2018-01-25T04:52:07.112Z,99.99
2018-01-25T04:53:07.141Z,99.99
2018-01-25T04:54:07.169Z,99.99
2018-01-25T04:55:07.198Z,99.99
2018-01-25T04:56:07.226Z,99.99
2018-01-25T04:57:07.262Z,99.99
2018-01-25T04:58:07.285Z,99.99
2018-01-25T04:59:07.314Z,99.99
2018-01-25T05:00:07.342Z,99.99
2018-01-25T05:01:07.372Z,99.99
2018-01-25T05:02:07.400Z,99.99
2018-01-25T05:03:07.429Z,99.99
2018-01-25T05:04:07.457Z,99.99
2018-01-25T05:05:07.485Z,99.99
2018-01-25T05:06:07.515Z,99.99
2018-01-25T05:07:07.543Z,99.99
2018-01-25T05:08:07.572Z,99.99
2018-01-25T05:09:07.602Z,99.99
2018-01-25T05:10:07.631Z,99.99
2018-01-25T05:11:07.660Z,99.99
2018-01-25T05:12:07.689Z,99.99
2018-01-25T05:13:07.718Z,99.99
2018-01-25T05:14:07.747Z,99.99
2018-01-25T05:15:07.776Z,99.99
2018-01-25T05:16:07.805Z,99.99
2018-01-25T05:17:07.834Z,99.99
2018-01-25T05:18:07.863Z,99.99
2018-01-25T05:19:07.893Z,99.99
2018-01-25T05:20:07.921Z,99.99
2018-01-25T05:21:07.950Z,99.99
2018-01-25T05:22:07.978Z,99.99
2018-01-25T05:23:08.008Z,99.99
2018-01-25T05:24:08.036Z,99.99
2018-01-25T05:25:08.066Z,99.99
2018-01-25T05:26:08.096Z,99.99
2018-01-25T05:27:08.126Z,99.99
2018-01-25T05:28:08.154Z,99.99
2018-01-25T05:29:08.182Z,99.99
2018-01-25T05:30:08.212Z,99.99
2018-01-25T05:31:08.241Z,99.99
2018-01-25T05:32:08.269Z,99.99
2018-01-25T05:33:08.300Z,99.99
2018-01-25T05:34:08.327Z,99.99
2018-01-25T05:35:08.358Z,99.99
2018-01-25T05:36:08.387Z,99.99
2018-01-25T05:37:08.416Z,99.99
2018-01-25T05:38:08.446Z,99.99
2018-01-25T05:39:08.475Z,99.99
2018-01-25T05:40:08.502Z,99.99
2018-01-25T05:41:08.533Z,99.99
2018-01-25T05:42:08.563Z,99.99
2018-01-25T05:43:08.592Z,99.99
2018-01-25T05:44:08.621Z,99.99
2018-01-25T05:45:08.648Z,99.99
2018-01-25T05:46:08.678Z,99.99
2018-01-25T05:47:08.707Z,99.99
2018-01-25T05:48:08.736Z,99.99
2018-01-25T05:49:08.765Z,99.99
2018-01-25T05:50:08.796Z,99.99
2018-01-25T05:51:08.825Z,99.99
2018-01-25T05:52:08.854Z,99.99
2018-01-25T05:53:08.884Z,99.99
2018-01-25T05:54:08.912Z,99.99
2018-01-25T05:55:08.941Z,99.99
2018-01-25T05:56:08.969Z,99.99
2018-01-25T05:57:08.998Z,99.99
2018-01-25T05:58:09.029Z,99.99
2018-01-25T05:59:09.058Z,99.99
2018-01-25T06:00:09.088Z,99.99
2018-01-25T06:01:09.116Z,99.99
2018-01-25T06:02:09.145Z,99.99
2018-01-25T06:03:09.174Z,99.99
2018-01-25T06:04:09.202Z,99.99
2018-01-25T06:05:09.234Z,99.99
2018-01-25T06:06:09.261Z,99.99
2018-01-25T06:07:09.291Z,99.99
2018-01-25T06:08:09.319Z,99.99
2018-01-25T06:09:09.349Z,99.99
2018-01-25T06:10:09.378Z,99.99
2018-01-25T06:11:09.407Z,99.99
2018-01-25T06:12:09.437Z,99.99
2018-01-25T06:13:09.465Z,99.99
2018-01-25T06:14:09.497Z,99.99
2018-01-25T06:15:09.523Z,99.99
2018-01-25T06:16:09.553Z,99.99
2018-01-25T06:17:09.586Z,99.99
2018-01-25T06:18:09.611Z,99.99
2018-01-25T06:19:09.639Z,99.99
2018-01-25T06:20:09.668Z,99.99
2018-01-25T06:21:09.697Z,99.99
2018-01-25T06:22:09.728Z,99.99
2018-01-25T06:23:09.758Z,99.99
2018-01-25T06:24:09.785Z,99.99
2018-01-25T06:25:09.815Z,99.99
2018-01-25T06:26:09.843Z,99.99
2018-01-25T06:27:09.873Z,99.99
2018-01-25T06:28:09.902Z,99.99
2018-01-25T06:29:09.930Z,99.99
2018-01-25T06:30:09.961Z,99.99
2018-01-25T06:31:09.990Z,99.99
2018-01-25T06:32:10.018Z,99.99
2018-01-25T06:33:10.046Z,99.99
2018-01-25T06:34:10.077Z,99.99
2018-01-25T06:35:10.106Z,99.99
2018-01-25T06:36:10.134Z,99.99
2018-01-25T06:37:10.163Z,99.99
2018-01-25T06:38:10.192Z,99.99
2018-01-25T06:39:10.222Z,99.99
2018-01-25T06:40:10.251Z,99.99
2018-01-25T06:41:10.282Z,99.99
2018-01-25T06:42:10.309Z,99.99
2018-01-25T06:43:10.338Z,99.99
2018-01-25T06:44:10.366Z,99.99
2018-01-25T06:45:10.395Z,99.99
2018-01-25T06:46:10.426Z,99.99
2018-01-25T06:47:10.453Z,99.99
2018-01-25T06:48:10.482Z,99.99
2018-01-25T06:49:10.512Z,99.99
2018-01-25T06:50:10.539Z,99.99
2018-01-25T06:51:10.569Z,99.99
2018-01-25T06:52:10.598Z,99.99
2018-01-25T06:53:10.627Z,99.99
2018-01-25T06:54:10.657Z,99.99
2018-01-25T06:55:10.685Z,99.99
2018-01-25T06:56:10.713Z,99.99
2018-01-25T06:57:10.742Z,99.99
2018-01-25T06:58:10.775Z,99.99
2018-01-25T06:59:10.802Z,99.99
2018-01-25T07:00:10.845Z,99.99
2018-01-25T07:01:10.859Z,99.99
2018-01-25T07:02:10.913Z,99.99
2018-01-25T07:03:10.917Z,99.99
2018-01-25T07:04:10.946Z,99.99
2018-01-25T07:05:10.974Z,99.99
2018-01-25T07:06:11.002Z,99.99
2018-01-25T07:07:11.032Z,99.99
2018-01-25T07:08:11.061Z,99.99
2018-01-25T07:09:11.091Z,99.99
2018-01-25T07:10:11.119Z,99.99
2018-01-25T07:11:11.152Z,99.99
2018-01-25T07:12:11.183Z,99.99
2018-01-25T07:13:11.210Z,99.99
2018-01-25T07:14:11.234Z,99.99
2018-01-25T07:15:11.265Z,99.99
2018-01-25T07:16:11.292Z,99.99
2018-01-25T07:17:11.321Z,99.99
2018-01-25T07:18:11.352Z,99.99
2018-01-25T07:19:11.380Z,99.99
2018-01-25T07:20:11.410Z,99.99
2018-01-25T07:21:11.438Z,99.99
2018-01-25T07:22:11.466Z,99.99
2018-01-25T07:23:11.496Z,99.99
2018-01-25T07:24:11.523Z,99.99
2018-01-25T07:25:11.553Z,99.99
2018-01-25T07:26:11.583Z,99.99
2018-01-25T07:27:11.612Z,99.99
2018-01-25T07:28:11.640Z,99.99
2018-01-25T07:29:11.670Z,99.99
2018-01-25T07:30:11.699Z,99.99
2018-01-25T07:31:11.728Z,99.99
2018-01-25T07:32:11.757Z,99.99
2018-01-25T07:33:11.786Z,99.99
2018-01-25T07:34:11.814Z,99.99
2018-01-25T07:35:11.846Z,99.99
2018-01-25T07:36:11.873Z,99.99
2018-01-25T07:37:11.902Z,99.99
2018-01-25T07:38:11.933Z,99.99
2018-01-25T07:39:11.961Z,99.99
2018-01-25T07:40:11.993Z,99.99
2018-01-25T07:41:12.020Z,99.99
2018-01-25T07:42:12.049Z,99.99
2018-01-25T07:43:12.078Z,99.99
2018-01-25T07:44:12.107Z,99.99
2018-01-25T07:45:12.137Z,99.99
2018-01-25T07:46:12.166Z,99.99
2018-01-25T07:47:12.195Z,99.99
2018-01-25T07:48:12.224Z,99.99
2018-01-25T07:49:12.253Z,99.99
2018-01-25T07:50:12.283Z,99.99
2018-01-25T07:51:12.368Z,99.99
2018-01-25T07:52:12.341Z,99.99
2018-01-25T07:53:12.371Z,98.97
2018-01-25T07:54:12.401Z,99.31
2018-01-25T07:55:12.430Z,99.60
2018-01-25T07:56:12.460Z,99.99
2018-01-25T07:57:12.491Z,99.99
2018-01-25T07:58:12.520Z,99.99
2018-01-25T07:59:12.550Z,99.99
2018-01-25T08:00:12.581Z,99.99
2018-01-25T08:01:12.609Z,99.99
2018-01-25T08:02:12.641Z,99.99
2018-01-25T08:03:12.668Z,99.99
2018-01-25T08:04:12.698Z,99.99
2018-01-25T08:05:12.728Z,99.99
2018-01-25T08:06:12.759Z,99.99
2018-01-25T08:07:12.788Z,99.99
2018-01-25T08:08:12.818Z,99.99
2018-01-25T08:09:12.849Z,99.99
2018-01-25T08:10:12.878Z,99.31
2018-01-25T08:11:12.907Z,99.99
2018-01-25T08:12:12.937Z,99.99
2018-01-25T08:13:12.967Z,99.99
2018-01-25T08:14:12.998Z,99.99
2018-01-25T08:15:13.029Z,99.99
2018-01-25T08:16:13.060Z,99.99
2018-01-25T08:17:13.095Z,99.31
2018-01-25T08:18:13.118Z,98.08
2018-01-25T08:19:13.150Z,97.79
2018-01-25T08:20:13.179Z,97.93
2018-01-25T08:21:13.211Z,98.13
2018-01-25T08:22:13.241Z,98.41
2018-01-25T08:23:13.272Z,97.55
2018-01-25T08:24:13.300Z,97.36
2018-01-25T08:25:13.332Z,97.74
2018-01-25T08:26:13.362Z,97.65
2018-01-25T08:27:13.393Z,97.74
2018-01-25T08:28:13.422Z,96.51
2018-01-25T08:29:13.454Z,96.46
2018-01-25T08:30:13.488Z,96.55
2018-01-25T08:31:13.514Z,96.08
2018-01-25T08:32:13.546Z,94.74
2018-01-25T08:33:13.577Z,94.65
2018-01-25T08:34:13.607Z,93.60
2018-01-25T08:35:13.639Z,93.79
2018-01-25T08:36:13.668Z,95.51
2018-01-25T08:37:13.699Z,95.60
2018-01-25T08:38:13.732Z,94.37
2018-01-25T08:39:13.764Z,94.41
2018-01-25T08:40:13.794Z,93.93
2018-01-25T08:41:13.825Z,92.32
2018-01-25T08:42:13.856Z,92.03
2018-01-25T08:43:13.888Z,92.22
2018-01-25T08:44:13.919Z,93.55
2018-01-25T08:45:13.952Z,92.74
2018-01-25T08:46:13.984Z,90.79
2018-01-25T08:47:14.014Z,87.02
2018-01-25T08:48:14.043Z,85.10
2018-01-25T08:49:14.075Z,81.70
2018-01-25T08:50:14.108Z,81.26
2018-01-25T08:51:14.148Z,80.59
2018-01-25T08:52:14.172Z,79.87
2018-01-25T08:53:14.204Z,79.20
2018-01-25T08:54:14.237Z,78.53
2018-01-25T08:55:14.270Z,78.30
2018-01-25T08:56:14.302Z,79.64
2018-01-25T08:57:14.335Z,75.52
2018-01-25T08:58:14.366Z,76.20
2018-01-25T08:59:14.400Z,79.12
2018-01-25T09:00:14.434Z,82.56
2018-01-25T09:01:14.467Z,80.41
2018-01-25T09:02:14.500Z,80.61
2018-01-25T09:03:14.535Z,81.13
2018-01-25T09:04:14.568Z,81.32
2018-01-25T09:05:14.602Z,81.03
2018-01-25T09:06:14.635Z,80.84
2018-01-25T09:07:14.669Z,79.60
2018-01-25T09:08:14.709Z,79.50
2018-01-25T09:09:14.735Z,80.02
2018-01-25T09:10:14.773Z,79.54
2018-01-25T09:11:14.804Z,81.22
2018-01-25T09:12:14.837Z,80.07
2018-01-25T09:13:14.872Z,78.36
2018-01-25T09:14:14.906Z,77.11
2018-01-25T09:15:14.941Z,74.66
2018-01-25T09:16:14.973Z,74.22
2018-01-25T09:17:15.009Z,73.36
2018-01-25T09:18:15.042Z,73.63
2018-01-25T09:19:15.078Z,72.64
2018-01-25T09:20:15.111Z,69.04
2018-01-25T09:21:15.147Z,65.27
2018-01-25T09:22:15.183Z,61.87
2018-01-25T09:23:15.216Z,60.46
2018-01-25T09:24:15.251Z,59.05
2018-01-25T09:25:15.287Z,58.40
2018-01-25T09:26:15.324Z,56.82
2018-01-25T09:27:15.359Z,53.55
2018-01-25T09:28:15.393Z,54.20
2018-01-25T09:29:15.431Z,55.04
2018-01-25T09:30:15.468Z,55.68
2018-01-25T09:31:15.505Z,56.07
2018-01-25T09:32:15.540Z,54.56
2018-01-25T09:33:15.579Z,52.87
2018-01-25T09:34:15.616Z,54.58
2018-01-25T09:35:15.654Z,56.58
2018-01-25T09:36:15.689Z,55.74
2018-01-25T09:37:15.728Z,57.54
2018-01-25T09:38:15.767Z,57.18
2018-01-25T09:39:15.804Z,56.22
2018-01-25T09:40:15.841Z,55.09
2018-01-25T09:41:15.921Z,55.07
2018-01-25T09:42:15.918Z,55.74
2018-01-25T09:43:15.963Z,56.29
2018-01-25T09:44:15.994Z,58.57
2018-01-25T09:45:16.035Z,58.37
2018-01-25T09:46:16.072Z,56.91
2018-01-25T09:47:16.133Z,59.86
2018-01-25T09:48:16.148Z,61.36
2018-01-25T09:49:16.187Z,61.36
2018-01-25T09:50:16.228Z,61.49
2018-01-25T09:51:16.264Z,57.36
2018-01-25T09:52:16.303Z,57.58
2018-01-25T09:53:16.342Z,56.36
2018-01-25T09:54:16.395Z,53.21
2018-01-25T09:55:16.421Z,56.87
2018-01-25T09:56:16.460Z,55.74
2018-01-25T09:57:16.501Z,54.06
2018-01-25T09:58:16.538Z,53.53
2018-01-25T09:59:16.578Z,55.81
2018-01-25T10:00:16.616Z,57.70
2018-01-25T10:01:16.655Z,58.28
2018-01-25T10:02:16.696Z,57.13
2018-01-25T10:03:16.736Z,58.64
2018-01-25T10:04:16.775Z,59.41
2018-01-25T10:05:16.813Z,61.24
2018-01-25T10:06:16.854Z,65.08
2018-01-25T10:07:16.895Z,62.07
2018-01-25T10:08:16.934Z,60.85
2018-01-25T10:09:16.974Z,56.53
2018-01-25T10:10:17.031Z,60.05
2018-01-25T10:11:17.053Z,61.62
2018-01-25T10:12:17.092Z,58.67
2018-01-25T10:13:17.132Z,58.13
2018-01-25T10:14:17.172Z,56.11
2018-01-25T10:15:17.212Z,56.23
2018-01-25T10:16:17.249Z,56.91
2018-01-25T10:17:17.290Z,58.89
2018-01-25T10:18:17.330Z,58.25
2018-01-25T10:19:17.370Z,57.29
2018-01-25T10:20:17.409Z,57.60
2018-01-25T10:21:17.449Z,52.42
2018-01-25T10:22:17.488Z,51.09
2018-01-25T10:23:17.529Z,51.29
2018-01-25T10:24:17.566Z,50.90
2018-01-25T10:25:17.612Z,49.51
2018-01-25T10:26:17.647Z,47.31
2018-01-25T10:27:17.688Z,46.08
2018-01-25T10:28:17.727Z,44.35
2018-01-25T10:29:17.767Z,44.54
2018-01-25T10:30:17.807Z,44.35
2018-01-25T10:31:17.849Z,44.27
2018-01-25T10:32:17.888Z,43.21
2018-01-25T10:33:17.928Z,43.94
2018-01-25T10:34:17.968Z,43.87
2018-01-25T10:35:18.011Z,43.67
2018-01-25T10:36:18.051Z,45.36
2018-01-25T10:37:18.090Z,45.25
2018-01-25T10:38:18.131Z,45.73
2018-01-25T10:39:18.173Z,47.19
2018-01-25T10:40:18.212Z,46.06
2018-01-25T10:41:18.254Z,44.52
2018-01-25T10:42:18.295Z,45.25
2018-01-25T10:43:18.337Z,46.14
2018-01-25T10:44:18.378Z,45.21
2018-01-25T10:45:18.417Z,43.04
2018-01-25T10:46:18.459Z,42.48
2018-01-25T10:47:18.500Z,40.77
2018-01-25T10:48:18.540Z,40.55
2018-01-25T10:49:18.581Z,40.84
2018-01-25T10:50:18.624Z,40.65
2018-01-25T10:51:18.665Z,40.80
2018-01-25T10:52:18.707Z,42.71
2018-01-25T10:53:18.748Z,43.02
2018-01-25T10:54:18.789Z,41.30
2018-01-25T10:55:18.833Z,39.62
2018-01-25T10:56:18.872Z,38.89
2018-01-25T10:57:18.914Z,36.52
2018-01-25T10:58:18.956Z,35.15
2018-01-25T10:59:18.999Z,35.25
2018-01-25T11:00:19.039Z,36.30
2018-01-25T11:01:19.084Z,38.08
2018-01-25T11:02:19.125Z,39.49
2018-01-25T11:03:19.173Z,41.40
2018-01-25T11:04:19.210Z,42.03
2018-01-25T11:05:19.251Z,43.48
2018-01-25T11:06:19.295Z,43.77
2018-01-25T11:07:19.339Z,45.12
2018-01-25T11:08:19.704Z,43.55
2018-01-25T11:09:19.421Z,44.40
2018-01-25T11:10:19.464Z,45.15
2018-01-25T11:11:19.506Z,46.31
2018-01-25T11:12:19.545Z,46.11
2018-01-25T11:13:19.589Z,46.59
2018-01-25T11:14:19.630Z,47.17
2018-01-25T11:15:19.672Z,47.15
2018-01-25T11:16:19.713Z,47.27
2018-01-25T11:17:19.754Z,46.59
2018-01-25T11:18:19.796Z,46.14
2018-01-25T11:19:19.837Z,46.11
2018-01-25T11:20:19.876Z,47.05
2018-01-25T11:21:19.917Z,47.92
2018-01-25T11:22:19.964Z,48.21
2018-01-25T11:23:20.001Z,47.08
2018-01-25T11:24:20.041Z,46.62
2018-01-25T11:25:20.082Z,45.21
2018-01-25T11:26:20.124Z,43.04
2018-01-25T11:27:20.166Z,41.88
2018-01-25T11:28:20.207Z,41.60
2018-01-25T11:29:20.247Z,42.00
2018-01-25T11:30:20.289Z,41.05
2018-01-25T11:31:20.329Z,41.13
2018-01-25T11:32:20.371Z,41.23
2018-01-25T11:33:20.413Z,40.84
2018-01-25T11:34:20.454Z,41.23
2018-01-25T11:35:20.497Z,41.60
2018-01-25T11:36:20.536Z,41.23
2018-01-25T11:37:20.580Z,42.54
2018-01-25T11:38:20.621Z,42.90
2018-01-25T11:39:20.663Z,44.59
2018-01-25T11:40:20.704Z,46.11
2018-01-25T11:41:20.746Z,46.01
2018-01-25T11:42:20.786Z,46.28
2018-01-25T11:43:20.829Z,43.89
2018-01-25T11:44:20.872Z,42.71
2018-01-25T11:45:20.912Z,43.55
2018-01-25T11:46:20.953Z,44.06
2018-01-25T11:47:20.994Z,43.85
2018-01-25T11:48:21.036Z,43.94
2018-01-25T11:49:21.079Z,44.31
2018-01-25T11:50:21.120Z,45.99
2018-01-25T11:51:21.164Z,46.57
2018-01-25T11:52:21.203Z,47.56
2018-01-25T11:53:21.244Z,46.40
2018-01-25T11:54:21.287Z,47.27
2018-01-25T11:55:21.329Z,46.98
2018-01-25T11:56:21.366Z,47.46
2018-01-25T11:57:21.409Z,47.77
2018-01-25T11:58:21.454Z,46.83
2018-01-25T11:59:21.491Z,45.39
2018-01-25T12:00:21.533Z,46.45
2018-01-25T12:01:21.575Z,45.39
2018-01-25T12:02:21.615Z,45.12
2018-01-25T12:03:21.655Z,44.83
2018-01-25T12:04:21.696Z,45.20
2018-01-25T12:05:21.738Z,46.11
2018-01-25T12:06:21.779Z,46.95
2018-01-25T12:07:21.820Z,48.69
2018-01-25T12:08:21.861Z,48.47
2018-01-25T12:09:21.902Z,48.76
2018-01-25T12:10:21.943Z,49.69
2018-01-25T12:11:21.982Z,49.72
2018-01-25T12:12:22.024Z,49.31
2018-01-25T12:13:22.063Z,50.18
2018-01-25T12:14:22.104Z,51.04
2018-01-25T12:15:22.145Z,50.27
2018-01-25T12:16:22.185Z,51.04
2018-01-25T12:17:22.226Z,51.62
2018-01-25T12:18:22.265Z,51.47
2018-01-25T12:19:22.306Z,52.34
2018-01-25T12:20:22.346Z,52.34
2018-01-25T12:21:22.385Z,53.03
2018-01-25T12:22:22.426Z,52.94
2018-01-25T12:23:22.466Z,52.26
2018-01-25T12:24:22.506Z,52.72
2018-01-25T12:25:22.544Z,52.46
2018-01-25T12:26:22.584Z,53.01
2018-01-25T12:27:22.624Z,53.11
2018-01-25T12:28:22.663Z,53.11
2018-01-25T12:29:22.703Z,53.03
2018-01-25T12:30:22.741Z,53.87
2018-01-25T12:31:22.780Z,53.30
2018-01-25T12:32:22.846Z,53.68
2018-01-25T12:33:22.860Z,54.61
2018-01-25T12:34:22.899Z,53.66
2018-01-25T12:35:22.939Z,54.55
2018-01-25T12:36:22.977Z,53.68
2018-01-25T12:37:23.017Z,53.78
2018-01-25T12:38:23.056Z,52.91
2018-01-25T12:39:23.098Z,53.30
2018-01-25T12:40:23.180Z,53.42
2018-01-25T12:41:23.174Z,52.55
2018-01-25T12:42:23.213Z,52.55
2018-01-25T12:43:23.253Z,51.88
2018-01-25T12:44:23.293Z,51.14
2018-01-25T12:45:23.330Z,49.53
2018-01-25T12:46:23.370Z,48.61
2018-01-25T12:47:23.409Z,46.91
2018-01-25T12:48:23.446Z,46.52
2018-01-25T12:49:23.486Z,46.88
2018-01-25T12:50:23.528Z,48.69
2018-01-25T12:51:23.569Z,48.81
2018-01-25T12:52:23.606Z,48.03
2018-01-25T12:53:23.646Z,48.02